createdAt,value
2023-03-06T00:00:26.518Z,3.59
2023-03-06T00:01:26.387Z,3.57
2023-03-06T00:02:26.380Z,3.57
2023-03-06T00:03:26.400Z,3.54
2023-03-06T00:04:26.354Z,3.53
2023-03-06T00:05:26.398Z,3.49
2023-03-06T00:06:26.384Z,3.49
2023-03-06T00:07:26.357Z,3.46
2023-03-06T00:08:26.319Z,3.49
2023-03-06T00:09:26.304Z,3.50
2023-03-06T00:10:26.334Z,3.46
2023-03-06T00:11:26.274Z,3.45
2023-03-06T00:12:26.319Z,3.50
2023-03-06T00:13:26.309Z,3.50
2023-03-06T00:14:26.281Z,3.49
2023-03-06T00:15:26.273Z,3.52
2023-03-06T00:16:26.251Z,3.52
2023-03-06T00:17:26.210Z,3.52
2023-03-06T00:18:26.220Z,3.52
2023-03-06T00:19:26.194Z,3.53
2023-03-06T00:20:26.301Z,3.53
2023-03-06T00:21:26.179Z,3.52
2023-03-06T00:22:26.179Z,3.53
2023-03-06T00:23:26.139Z,3.53
2023-03-06T00:24:26.125Z,3.56
2023-03-06T00:25:26.544Z,3.56
2023-03-06T00:26:26.091Z,3.56
2023-03-06T00:27:26.169Z,3.54
2023-03-06T00:28:26.974Z,3.54
2023-03-06T00:29:26.063Z,3.53
2023-03-06T00:30:26.132Z,3.52
2023-03-06T00:31:26.071Z,3.53
2023-03-06T00:32:26.069Z,3.52
2023-03-06T00:33:26.012Z,3.53
2023-03-06T00:34:26.023Z,3.53
2023-03-06T00:35:26.085Z,3.53
2023-03-06T00:36:25.997Z,3.54
2023-03-06T00:37:26.016Z,3.53
2023-03-06T00:38:26.020Z,3.54
2023-03-06T00:39:25.970Z,3.56
2023-03-06T00:40:26.008Z,3.56
2023-03-06T00:41:25.943Z,3.54
2023-03-06T00:42:25.937Z,3.54
2023-03-06T00:43:25.925Z,3.57
2023-03-06T00:44:26.443Z,3.54
2023-03-06T00:45:25.964Z,3.56
2023-03-06T00:46:25.898Z,3.56
2023-03-06T00:47:25.886Z,3.54
2023-03-06T00:48:25.974Z,3.53
2023-03-06T00:49:25.833Z,3.52
2023-03-06T00:50:25.856Z,3.52
2023-03-06T00:51:25.838Z,3.52
2023-03-06T00:52:25.814Z,3.52
2023-03-06T00:53:25.867Z,3.49
2023-03-06T00:54:25.795Z,3.45
2023-03-06T00:55:25.836Z,3.45
2023-03-06T00:56:25.796Z,3.44
2023-03-06T00:57:25.767Z,3.41
2023-03-06T00:58:25.745Z,3.37
2023-03-06T00:59:25.765Z,3.37
2023-03-06T01:00:25.771Z,3.37
2023-03-06T01:01:25.717Z,3.39
2023-03-06T01:02:25.802Z,3.39
2023-03-06T01:03:25.718Z,3.41
2023-03-06T01:04:25.679Z,3.42
2023-03-06T01:05:25.725Z,3.41
2023-03-06T01:06:25.683Z,3.45
2023-03-06T01:07:25.647Z,3.45
2023-03-06T01:08:25.664Z,3.46
2023-03-06T01:09:25.620Z,3.49
2023-03-06T01:10:25.634Z,3.50
2023-03-06T01:11:25.624Z,3.49
2023-03-06T01:12:25.587Z,3.50
2023-03-06T01:13:25.634Z,3.50
2023-03-06T01:14:25.592Z,3.49
2023-03-06T01:15:25.618Z,3.49
2023-03-06T01:16:25.617Z,3.50
2023-03-06T01:17:25.554Z,3.49
2023-03-06T01:18:25.521Z,3.50
2023-03-06T01:19:25.508Z,3.53
2023-03-06T01:20:25.556Z,3.53
2023-03-06T01:21:25.504Z,3.53
2023-03-06T01:22:25.494Z,3.54
2023-03-06T01:23:25.529Z,3.53
2023-03-06T01:24:25.515Z,3.54
2023-03-06T01:25:25.435Z,3.54
2023-03-06T01:26:25.411Z,3.53
2023-03-06T01:27:25.400Z,3.53
2023-03-06T01:28:25.385Z,3.52
2023-03-06T01:29:25.392Z,3.50
2023-03-06T01:30:25.379Z,3.46
2023-03-06T01:31:25.422Z,3.45
2023-03-06T01:32:25.398Z,3.41
2023-03-06T01:33:25.328Z,3.41
2023-03-06T01:34:25.330Z,3.37
2023-03-06T01:35:25.357Z,3.35
2023-03-06T01:36:25.296Z,3.31
2023-03-06T01:37:25.294Z,3.31
2023-03-06T01:38:25.329Z,3.28
2023-03-06T01:39:25.271Z,3.26
2023-03-06T01:40:25.267Z,3.23
2023-03-06T01:41:25.257Z,3.23
2023-03-06T01:42:25.230Z,3.22
2023-03-06T01:43:25.234Z,3.20
2023-03-06T01:44:25.201Z,3.19
2023-03-06T01:45:25.243Z,3.19
2023-03-06T01:46:25.217Z,3.17
2023-03-06T01:47:25.184Z,3.16
2023-03-06T01:48:25.182Z,3.16
2023-03-06T01:49:25.195Z,3.13
2023-03-06T01:50:25.173Z,3.10
2023-03-06T01:51:25.145Z,3.08
2023-03-06T01:52:25.123Z,3.05
2023-03-06T01:53:25.110Z,3.05
2023-03-06T01:54:25.129Z,3.05
2023-03-06T01:55:25.117Z,2.99
2023-03-06T01:56:25.081Z,2.99
2023-03-06T01:57:25.073Z,2.98
2023-03-06T01:58:25.095Z,2.98
2023-03-06T01:59:25.044Z,2.98
2023-03-06T02:00:25.056Z,2.95
2023-03-06T02:01:25.102Z,2.97
2023-03-06T02:02:25.070Z,2.97
2023-03-06T02:03:25.003Z,2.94
2023-03-06T02:04:24.989Z,2.92
2023-03-06T02:05:25.012Z,2.92
2023-03-06T02:06:24.961Z,2.92
2023-03-06T02:07:24.954Z,2.90
2023-03-06T02:08:24.959Z,2.87
2023-03-06T02:09:24.931Z,2.87
2023-03-06T02:10:24.940Z,2.86
2023-03-06T02:11:24.957Z,2.87
2023-03-06T02:12:24.904Z,2.87
2023-03-06T02:13:24.892Z,2.86
2023-03-06T02:14:24.874Z,2.86
2023-03-06T02:15:24.900Z,2.87
2023-03-06T02:16:24.904Z,2.86
2023-03-06T02:17:24.843Z,2.87
2023-03-06T02:18:24.828Z,2.87
2023-03-06T02:19:24.818Z,2.89
2023-03-06T02:20:24.830Z,2.89
2023-03-06T02:21:24.835Z,2.89
2023-03-06T02:22:24.782Z,2.92
2023-03-06T02:23:24.774Z,2.94
2023-03-06T02:24:24.761Z,2.98
2023-03-06T02:25:24.773Z,2.98
2023-03-06T02:26:24.756Z,2.99
2023-03-06T02:27:24.751Z,2.99
2023-03-06T02:28:24.711Z,3.01
2023-03-06T02:29:24.711Z,2.99
2023-03-06T02:30:24.720Z,2.98
2023-03-06T02:31:24.680Z,2.98
2023-03-06T02:32:24.720Z,2.98
2023-03-06T02:33:24.665Z,2.98
2023-03-06T02:34:24.669Z,2.97
2023-03-06T02:35:24.694Z,2.98
2023-03-06T02:36:24.633Z,3.01
2023-03-06T02:37:24.615Z,2.99
2023-03-06T02:38:24.605Z,2.98
2023-03-06T02:39:24.593Z,2.98
2023-03-06T02:40:24.606Z,2.95
2023-03-06T02:41:24.582Z,2.98
2023-03-06T02:42:24.572Z,2.97
2023-03-06T02:43:24.551Z,2.95
2023-03-06T02:44:24.529Z,2.97
2023-03-06T02:45:24.554Z,2.95
2023-03-06T02:46:24.627Z,2.94
2023-03-06T02:47:24.501Z,2.90
2023-03-06T02:48:24.501Z,2.90
2023-03-06T02:49:26.428Z,2.86
2023-03-06T02:50:24.502Z,2.84
2023-03-06T02:51:24.456Z,2.83
2023-03-06T02:52:24.442Z,2.81
2023-03-06T02:53:24.443Z,2.80
2023-03-06T02:54:24.415Z,2.77
2023-03-06T02:55:24.429Z,2.80
2023-03-06T02:56:24.408Z,2.79
2023-03-06T02:57:24.392Z,2.80
2023-03-06T02:58:24.374Z,2.77
2023-03-06T02:59:24.362Z,2.74
2023-03-06T03:00:24.394Z,2.73
2023-03-06T03:01:24.429Z,2.71
2023-03-06T03:02:24.321Z,2.73
2023-03-06T03:03:24.316Z,2.73
2023-03-06T03:04:24.328Z,2.71
2023-03-06T03:05:24.326Z,2.71
2023-03-06T03:06:24.279Z,2.66
2023-03-06T03:07:24.275Z,2.62
2023-03-06T03:08:24.264Z,2.58
2023-03-06T03:09:24.252Z,2.56
2023-03-06T03:10:24.256Z,2.59
2023-03-06T03:11:24.224Z,2.61
2023-03-06T03:12:24.224Z,2.61
2023-03-06T03:13:24.203Z,2.62
2023-03-06T03:14:24.196Z,2.62
2023-03-06T03:15:24.201Z,2.63
2023-03-06T03:16:24.169Z,2.66
2023-03-06T03:17:24.164Z,2.66
2023-03-06T03:18:24.146Z,2.65
2023-03-06T03:19:24.133Z,2.65
2023-03-06T03:20:24.178Z,2.62
2023-03-06T03:21:24.112Z,2.61
2023-03-06T03:22:24.104Z,2.62
2023-03-06T03:23:24.094Z,2.62
2023-03-06T03:24:24.141Z,2.59
2023-03-06T03:25:24.098Z,2.56
2023-03-06T03:26:24.054Z,2.58
2023-03-06T03:27:24.057Z,2.55
2023-03-06T03:28:24.035Z,2.53
2023-03-06T03:29:24.037Z,2.53
2023-03-06T03:30:24.046Z,2.53
2023-03-06T03:31:24.060Z,2.51
2023-03-06T03:32:24.039Z,2.48
2023-03-06T03:33:23.988Z,2.48
2023-03-06T03:34:23.984Z,2.47
2023-03-06T03:35:24.041Z,2.48
2023-03-06T03:36:23.953Z,2.50
2023-03-06T03:37:23.945Z,2.50
2023-03-06T03:38:23.925Z,2.48
2023-03-06T03:39:23.920Z,2.50
2023-03-06T03:40:23.925Z,2.50
2023-03-06T03:41:23.909Z,2.51
2023-03-06T03:42:23.942Z,2.55
2023-03-06T03:43:23.871Z,2.58
2023-03-06T03:44:23.858Z,2.58
2023-03-06T03:45:23.878Z,2.59
2023-03-06T03:46:23.884Z,2.59
2023-03-06T03:47:23.827Z,2.61
2023-03-06T03:48:23.822Z,2.62
2023-03-06T03:49:23.812Z,2.62
2023-03-06T03:50:23.824Z,2.61
2023-03-06T03:51:23.781Z,2.62
2023-03-06T03:52:23.785Z,2.61
2023-03-06T03:53:23.775Z,2.63
2023-03-06T03:54:23.752Z,2.59
2023-03-06T03:55:23.754Z,2.59
2023-03-06T03:56:23.767Z,2.56
2023-03-06T03:57:23.714Z,2.56
2023-03-06T03:58:23.702Z,2.53
2023-03-06T03:59:23.689Z,2.53
2023-03-06T04:00:23.729Z,2.48
2023-03-06T04:01:23.676Z,2.43
2023-03-06T04:02:23.798Z,2.41
2023-03-06T04:03:23.637Z,2.41
2023-03-06T04:04:23.639Z,2.41
2023-03-06T04:05:23.651Z,2.41
2023-03-06T04:06:23.610Z,2.41
2023-03-06T04:07:23.605Z,2.40
2023-03-06T04:08:23.615Z,2.40
2023-03-06T04:09:23.574Z,2.40
2023-03-06T04:10:23.597Z,2.38
2023-03-06T04:11:23.553Z,2.37
2023-03-06T04:12:23.542Z,2.40
2023-03-06T04:13:23.551Z,2.40
2023-03-06T04:14:23.524Z,2.40
2023-03-06T04:15:23.531Z,2.41
2023-03-06T04:16:23.539Z,2.41
2023-03-06T04:17:23.486Z,2.43
2023-03-06T04:18:23.482Z,2.43
2023-03-06T04:19:23.466Z,2.44
2023-03-06T04:20:23.511Z,2.41
2023-03-06T04:21:23.449Z,2.41
2023-03-06T04:22:23.431Z,2.40
2023-03-06T04:23:23.426Z,2.41
2023-03-06T04:24:23.412Z,2.41
2023-03-06T04:25:23.415Z,2.38
2023-03-06T04:26:23.398Z,2.37
2023-03-06T04:27:23.369Z,2.36
2023-03-06T04:28:23.378Z,2.37
2023-03-06T04:29:23.349Z,2.37
2023-03-06T04:30:23.370Z,2.37
2023-03-06T04:31:23.401Z,2.36
2023-03-06T04:32:23.378Z,2.36
2023-03-06T04:33:23.304Z,2.37
2023-03-06T04:34:23.304Z,2.38
2023-03-06T04:35:23.332Z,2.40
2023-03-06T04:36:23.276Z,2.40
2023-03-06T04:37:23.274Z,2.40
2023-03-06T04:38:23.265Z,2.41
2023-03-06T04:39:23.249Z,2.43
2023-03-06T04:40:23.256Z,2.43
2023-03-06T04:41:23.224Z,2.45
2023-03-06T04:42:23.208Z,2.45
2023-03-06T04:43:23.207Z,2.45
2023-03-06T04:44:23.187Z,2.45
2023-03-06T04:45:23.238Z,2.47
2023-03-06T04:46:23.164Z,2.48
2023-03-06T04:47:23.166Z,2.45
2023-03-06T04:48:23.140Z,2.45
2023-03-06T04:49:23.142Z,2.45
2023-03-06T04:50:23.146Z,2.47
2023-03-06T04:51:23.118Z,2.45
2023-03-06T04:52:23.097Z,2.43
2023-03-06T04:53:23.098Z,2.45
2023-03-06T04:54:23.092Z,2.45
2023-03-06T04:55:23.104Z,2.47
2023-03-06T04:56:23.054Z,2.44
2023-03-06T04:57:23.046Z,2.45
2023-03-06T04:58:23.032Z,2.45
2023-03-06T04:59:23.029Z,2.44
2023-03-06T05:00:23.037Z,2.44
2023-03-06T05:01:23.057Z,2.43
2023-03-06T05:02:23.034Z,2.43
2023-03-06T05:03:22.985Z,2.40
2023-03-06T05:04:22.980Z,2.40
2023-03-06T05:05:22.990Z,2.38
2023-03-06T05:06:22.933Z,2.37
2023-03-06T05:07:22.942Z,2.37
2023-03-06T05:08:22.925Z,2.37
2023-03-06T05:09:22.949Z,2.36
2023-03-06T05:10:22.913Z,2.36
2023-03-06T05:11:22.887Z,2.32
2023-03-06T05:12:22.874Z,2.32
2023-03-06T05:13:22.861Z,2.32
2023-03-06T05:14:22.854Z,2.30
2023-03-06T05:15:22.873Z,2.32
2023-03-06T05:16:22.839Z,2.32
2023-03-06T05:17:22.822Z,2.33
2023-03-06T05:18:22.814Z,2.36
2023-03-06T05:19:22.792Z,2.33
2023-03-06T05:20:22.805Z,2.33
2023-03-06T05:21:22.777Z,2.33
2023-03-06T05:22:22.756Z,2.37
2023-03-06T05:23:22.749Z,2.37
2023-03-06T05:24:22.734Z,2.38
2023-03-06T05:25:22.745Z,2.37
2023-03-06T05:26:22.709Z,2.40
2023-03-06T05:27:22.747Z,2.40
2023-03-06T05:28:22.694Z,2.40
2023-03-06T05:29:22.719Z,2.40
2023-03-06T05:30:22.683Z,2.40
2023-03-06T05:31:22.716Z,2.40
2023-03-06T05:32:22.705Z,2.44
2023-03-06T05:33:22.638Z,2.44
2023-03-06T05:34:22.626Z,2.44
2023-03-06T05:35:22.664Z,2.47
2023-03-06T05:36:22.600Z,2.44
2023-03-06T05:37:22.599Z,2.44
2023-03-06T05:38:22.582Z,2.45
2023-03-06T05:39:22.576Z,2.45
2023-03-06T05:40:22.582Z,2.44
2023-03-06T05:41:22.559Z,2.47
2023-03-06T05:42:22.545Z,2.45
2023-03-06T05:43:22.530Z,2.45
2023-03-06T05:44:22.555Z,2.50
2023-03-06T05:45:22.531Z,2.47
2023-03-06T05:46:22.566Z,2.47
2023-03-06T05:47:22.531Z,2.48
2023-03-06T05:48:22.469Z,2.48
2023-03-06T05:49:22.468Z,2.45
2023-03-06T05:50:22.468Z,2.47
2023-03-06T05:51:22.437Z,2.45
2023-03-06T05:52:22.432Z,2.48
2023-03-06T05:53:22.420Z,2.48
2023-03-06T05:54:22.404Z,2.47
2023-03-06T05:55:22.418Z,2.50
2023-03-06T05:56:22.379Z,2.48
2023-03-06T05:57:22.377Z,2.48
2023-03-06T05:58:22.354Z,2.48
2023-03-06T05:59:22.361Z,2.48
2023-03-06T06:00:22.355Z,2.50
2023-03-06T06:01:22.323Z,2.50
2023-03-06T06:02:22.339Z,2.48
2023-03-06T06:03:22.317Z,2.48
2023-03-06T06:04:22.292Z,2.51
2023-03-06T06:05:22.315Z,2.51
2023-03-06T06:06:22.261Z,2.51
2023-03-06T06:07:22.258Z,2.51
2023-03-06T06:08:22.245Z,2.53
2023-03-06T06:09:22.234Z,2.53
2023-03-06T06:10:22.253Z,2.50
2023-03-06T06:11:22.216Z,2.53
2023-03-06T06:12:22.203Z,2.53
2023-03-06T06:13:22.195Z,2.53
2023-03-06T06:14:22.194Z,2.50
2023-03-06T06:15:22.196Z,2.50
2023-03-06T06:16:22.149Z,2.51
2023-03-06T06:17:22.152Z,2.53
2023-03-06T06:18:22.123Z,2.56
2023-03-06T06:19:22.126Z,2.56
2023-03-06T06:20:22.128Z,2.55
2023-03-06T06:21:22.126Z,2.56
2023-03-06T06:22:22.108Z,2.53
2023-03-06T06:23:22.084Z,2.56
2023-03-06T06:24:22.108Z,2.59
2023-03-06T06:25:22.077Z,2.59
2023-03-06T06:26:22.051Z,2.56
2023-03-06T06:27:22.055Z,2.56
2023-03-06T06:28:22.052Z,2.58
2023-03-06T06:29:22.011Z,2.61
2023-03-06T06:30:22.045Z,2.62
2023-03-06T06:31:22.024Z,2.61
2023-03-06T06:32:22.008Z,2.62
2023-03-06T06:33:21.966Z,2.63
2023-03-06T06:34:21.948Z,2.63
2023-03-06T06:35:22.005Z,2.63
2023-03-06T06:36:21.936Z,2.62
2023-03-06T06:37:21.932Z,2.65
2023-03-06T06:38:21.904Z,2.61
2023-03-06T06:39:21.900Z,2.62
2023-03-06T06:40:21.906Z,2.65
2023-03-06T06:42:32.957Z,2.68
2023-03-06T06:43:21.871Z,2.69
2023-03-06T06:44:21.835Z,2.69
2023-03-06T06:45:22.041Z,2.66
2023-03-06T06:47:09.323Z,2.68
2023-03-06T06:47:26.033Z,2.69
2023-03-06T06:48:21.870Z,2.69
2023-03-06T06:49:21.788Z,2.68
2023-03-06T06:50:21.776Z,2.68
2023-03-06T06:51:21.795Z,2.66
2023-03-06T06:52:21.767Z,2.68
2023-03-06T06:53:21.748Z,2.68
2023-03-06T06:54:21.725Z,2.69
2023-03-06T06:55:21.723Z,2.68
2023-03-06T06:56:21.749Z,2.68
2023-03-06T06:57:21.727Z,2.68
2023-03-06T06:58:21.683Z,2.73
2023-03-06T06:59:21.675Z,2.73
2023-03-06T07:00:21.672Z,2.73
2023-03-06T07:01:21.658Z,2.74
2023-03-06T07:02:22.121Z,2.74
2023-03-06T07:03:21.628Z,2.74
2023-03-06T07:04:21.620Z,2.73
2023-03-06T07:05:22.183Z,2.74
2023-03-06T07:06:21.588Z,2.74
2023-03-06T07:07:21.592Z,2.76
2023-03-06T07:08:21.594Z,2.80
2023-03-06T07:09:21.562Z,2.79
2023-03-06T07:10:21.553Z,2.77
2023-03-06T07:11:21.544Z,2.71
2023-03-06T07:12:21.518Z,2.73
2023-03-06T07:13:21.546Z,2.69
2023-03-06T07:14:21.496Z,2.74
2023-03-06T07:15:21.494Z,2.69
2023-03-06T07:16:21.530Z,2.71
2023-03-06T07:17:21.476Z,2.66
2023-03-06T07:18:21.450Z,2.63
2023-03-06T07:19:21.476Z,2.62
2023-03-06T07:20:21.445Z,2.63
2023-03-06T07:21:21.426Z,2.61
2023-03-06T07:22:21.426Z,2.58
2023-03-06T07:23:21.400Z,2.55
2023-03-06T07:24:21.386Z,2.56
2023-03-06T07:25:21.411Z,2.56
2023-03-06T07:26:21.391Z,2.55
2023-03-06T07:27:21.357Z,2.55
2023-03-06T07:28:21.385Z,2.58
2023-03-06T07:29:21.342Z,2.61
2023-03-06T07:30:21.317Z,2.62
2023-03-06T07:31:21.437Z,2.61
2023-03-06T07:32:21.379Z,2.61
2023-03-06T07:33:21.283Z,2.62
2023-03-06T07:34:21.312Z,2.65
2023-03-06T07:35:21.263Z,2.66
2023-03-06T07:36:21.247Z,2.61
2023-03-06T07:37:21.278Z,2.58
2023-03-06T07:38:21.229Z,2.58
2023-03-06T07:39:21.248Z,2.58
2023-03-06T07:40:21.220Z,2.55
2023-03-06T07:41:22.623Z,2.50
2023-03-06T07:42:21.186Z,2.43
2023-03-06T07:43:21.221Z,2.32
2023-03-06T07:44:21.169Z,2.25
2023-03-06T07:45:21.155Z,2.22
2023-03-06T07:46:21.187Z,2.20
2023-03-06T07:47:21.131Z,2.20
2023-03-06T07:48:21.120Z,2.25
2023-03-06T07:49:21.714Z,2.22
2023-03-06T07:50:21.114Z,2.23
2023-03-06T07:51:21.109Z,2.23
2023-03-06T07:52:21.079Z,2.25
2023-03-06T07:53:21.073Z,2.27
2023-03-06T07:54:21.077Z,2.26
2023-03-06T07:55:21.083Z,2.29
2023-03-06T07:56:21.041Z,2.30
2023-03-06T07:57:21.021Z,2.36
2023-03-06T07:58:21.014Z,2.32
2023-03-06T07:59:21.000Z,2.30
2023-03-06T08:00:20.988Z,2.30
2023-03-06T08:01:21.021Z,2.30
2023-03-06T08:02:20.969Z,2.32
2023-03-06T08:03:20.961Z,2.38
2023-03-06T08:04:20.949Z,2.37
2023-03-06T08:05:20.950Z,2.37
2023-03-06T08:06:21.032Z,2.38
2023-03-06T08:07:20.939Z,2.41
2023-03-06T08:08:20.896Z,2.41
2023-03-06T08:09:20.894Z,2.44
2023-03-06T08:10:20.878Z,2.41
2023-03-06T08:11:20.886Z,2.40
2023-03-06T08:12:20.873Z,2.38
2023-03-06T08:13:20.847Z,2.40
2023-03-06T08:14:20.823Z,2.41
2023-03-06T08:15:20.820Z,2.41
2023-03-06T08:16:20.855Z,2.44
2023-03-06T08:17:20.821Z,2.45
2023-03-06T08:18:20.778Z,2.48
2023-03-06T08:19:20.774Z,2.47
2023-03-06T08:20:20.779Z,2.47
2023-03-06T08:21:20.751Z,2.48
2023-03-06T08:22:20.774Z,2.45
2023-03-06T08:23:20.759Z,2.45
2023-03-06T08:24:20.748Z,2.47
2023-03-06T08:25:20.720Z,2.48
2023-03-06T08:26:20.695Z,2.51
2023-03-06T08:27:20.699Z,2.48
2023-03-06T08:28:20.664Z,2.48
2023-03-06T08:29:20.666Z,2.43
2023-03-06T08:30:20.644Z,2.37
2023-03-06T08:31:20.661Z,2.33
2023-03-06T08:32:20.680Z,2.33
2023-03-06T08:33:20.616Z,2.33
2023-03-06T08:34:20.594Z,2.32
2023-03-06T08:35:20.620Z,2.36
2023-03-06T08:36:20.604Z,2.36
2023-03-06T08:37:20.616Z,2.36
2023-03-06T08:38:20.552Z,2.37
2023-03-06T08:39:20.545Z,2.40
2023-03-06T08:40:20.530Z,2.36
2023-03-06T08:41:20.532Z,2.36
2023-03-06T08:42:20.531Z,2.40
2023-03-06T08:43:20.520Z,2.43
2023-03-06T08:44:20.483Z,2.45
2023-03-06T08:45:20.589Z,2.47
2023-03-06T08:46:20.472Z,2.48
2023-03-06T08:47:20.475Z,2.50
2023-03-06T08:48:20.441Z,2.53
2023-03-06T08:49:20.438Z,2.59
2023-03-06T08:50:20.418Z,2.68
2023-03-06T08:51:20.411Z,2.74
2023-03-06T08:52:20.415Z,2.76
2023-03-06T08:53:21.581Z,2.76
2023-03-06T08:54:20.524Z,2.73
2023-03-06T08:55:20.370Z,2.71
2023-03-06T08:56:20.354Z,2.68
2023-03-06T08:57:20.337Z,2.66
2023-03-06T08:58:20.330Z,2.68
2023-03-06T08:59:20.336Z,2.66
2023-03-06T09:00:20.368Z,2.66
2023-03-06T09:01:20.325Z,2.68
2023-03-06T09:02:20.291Z,2.76
2023-03-06T09:03:20.267Z,2.80
2023-03-06T09:04:20.288Z,2.81
2023-03-06T09:05:20.244Z,2.80
2023-03-06T09:06:20.253Z,2.83
2023-03-06T09:07:20.225Z,2.84
2023-03-06T09:08:20.227Z,2.86
2023-03-06T09:09:20.230Z,2.92
2023-03-06T09:10:20.283Z,3.01
2023-03-06T09:11:20.176Z,3.02
2023-03-06T09:12:20.172Z,3.02
2023-03-06T09:13:20.152Z,3.05
2023-03-06T09:14:20.202Z,3.12
2023-03-06T09:15:20.143Z,3.15
2023-03-06T09:16:20.146Z,3.22
2023-03-06T09:17:20.147Z,3.26
2023-03-06T09:18:20.102Z,3.20
2023-03-06T09:19:20.085Z,3.13
2023-03-06T09:20:20.122Z,3.13
2023-03-06T09:21:20.084Z,3.19
2023-03-06T09:22:20.061Z,3.23
2023-03-06T09:23:20.046Z,3.30
2023-03-06T09:24:20.044Z,3.31
2023-03-06T09:25:20.020Z,3.34
2023-03-06T09:26:20.038Z,3.34
2023-03-06T09:27:20.001Z,3.42
2023-03-06T09:28:19.993Z,3.46
2023-03-06T09:29:19.984Z,3.46
2023-03-06T09:30:19.971Z,3.46
2023-03-06T09:31:20.049Z,3.52
2023-03-06T09:32:20.002Z,3.54
2023-03-06T09:33:19.931Z,3.54
2023-03-06T09:34:19.934Z,3.54
2023-03-06T09:35:19.950Z,3.60
2023-03-06T09:36:19.927Z,3.62
2023-03-06T09:37:19.901Z,3.59
2023-03-06T09:38:19.939Z,3.62
2023-03-06T09:39:19.871Z,3.71
2023-03-06T09:40:19.868Z,3.72
2023-03-06T09:41:19.870Z,3.68
2023-03-06T09:42:19.860Z,3.67
2023-03-06T09:43:19.834Z,3.70
2023-03-06T09:44:19.818Z,3.72
2023-03-06T09:45:19.804Z,3.78
2023-03-06T09:46:19.824Z,3.86
2023-03-06T09:47:19.783Z,3.93
2023-03-06T09:48:19.805Z,3.93
2023-03-06T09:49:19.760Z,3.93
2023-03-06T09:50:19.751Z,3.90
2023-03-06T09:51:19.739Z,3.92
2023-03-06T09:52:19.723Z,3.88
2023-03-06T09:53:19.715Z,3.86
2023-03-06T09:54:19.742Z,3.92
2023-03-06T09:55:19.696Z,4.00
2023-03-06T09:56:19.694Z,4.06
2023-03-06T09:57:19.684Z,4.06
2023-03-06T09:58:19.657Z,4.06
2023-03-06T09:59:19.680Z,4.10
2023-03-06T10:00:19.632Z,4.16
2023-03-06T10:01:19.638Z,4.18
2023-03-06T10:02:19.671Z,4.24
2023-03-06T10:03:19.642Z,4.26
2023-03-06T10:04:19.598Z,4.21
2023-03-06T10:05:19.611Z,4.20
2023-03-06T10:06:19.597Z,4.28
2023-03-06T10:07:19.883Z,4.35
2023-03-06T10:08:19.544Z,4.39
2023-03-06T10:09:19.528Z,4.44
2023-03-06T10:10:19.527Z,4.43
2023-03-06T10:11:19.542Z,4.42
2023-03-06T10:12:19.496Z,4.56
2023-03-06T10:13:19.483Z,4.62
2023-03-06T10:14:19.482Z,4.67
2023-03-06T10:15:19.489Z,4.64
2023-03-06T10:16:19.481Z,4.69
2023-03-06T10:17:19.437Z,4.83
2023-03-06T10:18:19.437Z,4.79
2023-03-06T10:19:19.412Z,4.74
2023-03-06T10:20:19.421Z,4.83
2023-03-06T10:21:19.687Z,4.72
2023-03-06T10:22:19.416Z,4.61
2023-03-06T10:23:19.370Z,4.62
2023-03-06T10:24:19.365Z,4.56
2023-03-06T10:25:19.348Z,4.62
2023-03-06T10:26:19.434Z,4.72
2023-03-06T10:27:19.381Z,4.72
2023-03-06T10:28:19.322Z,4.80
2023-03-06T10:29:19.360Z,4.83
2023-03-06T10:30:19.298Z,4.91
2023-03-06T10:31:19.296Z,5.01
2023-03-06T10:32:19.363Z,4.94
2023-03-06T10:33:19.279Z,4.96
2023-03-06T10:34:19.257Z,4.93
2023-03-06T10:35:19.304Z,4.97
2023-03-06T10:36:19.226Z,5.05
2023-03-06T10:37:19.234Z,5.11
2023-03-06T10:38:19.204Z,5.17
2023-03-06T10:39:19.193Z,5.15
2023-03-06T10:40:19.202Z,5.09
2023-03-06T10:41:19.164Z,5.12
2023-03-06T10:42:19.162Z,5.22
2023-03-06T10:43:19.177Z,5.32
2023-03-06T10:44:19.140Z,5.33
2023-03-06T10:45:19.139Z,5.32
2023-03-06T10:46:19.280Z,5.35
2023-03-06T10:47:19.205Z,5.40
2023-03-06T10:48:19.131Z,5.51
2023-03-06T10:49:19.085Z,5.52
2023-03-06T10:50:19.080Z,5.56
2023-03-06T10:51:19.327Z,5.52
2023-03-06T10:52:19.106Z,5.55
2023-03-06T10:53:19.049Z,5.44
2023-03-06T10:54:19.077Z,5.49
2023-03-06T10:55:19.008Z,5.55
2023-03-06T10:56:19.015Z,5.63
2023-03-06T10:57:18.992Z,5.58
2023-03-06T10:58:18.997Z,5.55
2023-03-06T10:59:19.028Z,5.55
2023-03-06T11:00:20.461Z,5.59
2023-03-06T11:01:18.988Z,5.77
2023-03-06T11:02:18.934Z,5.95
2023-03-06T11:03:18.935Z,6.11
2023-03-06T11:04:18.953Z,6.27
2023-03-06T11:05:18.899Z,6.20
2023-03-06T11:06:18.938Z,6.45
2023-03-06T11:07:19.012Z,6.71
2023-03-06T11:08:18.868Z,6.97
2023-03-06T11:09:18.977Z,6.99
2023-03-06T11:10:18.971Z,6.89
2023-03-06T11:11:34.987Z,6.90
2023-03-06T11:12:18.836Z,6.91
2023-03-06T11:13:18.810Z,6.53
2023-03-06T11:14:18.829Z,6.39
2023-03-06T11:15:18.784Z,6.46
2023-03-06T11:16:18.859Z,6.81
2023-03-06T11:17:18.761Z,7.11
2023-03-06T11:18:18.759Z,7.21
2023-03-06T11:19:18.749Z,7.44
2023-03-06T11:20:18.808Z,7.71
2023-03-06T11:21:18.720Z,7.85
2023-03-06T11:22:18.715Z,7.66
2023-03-06T11:23:18.698Z,7.39
2023-03-06T11:24:18.691Z,7.66
2023-03-06T11:25:18.730Z,7.74
2023-03-06T11:26:18.668Z,7.42
2023-03-06T11:27:18.649Z,7.26
2023-03-06T11:28:18.647Z,7.15
2023-03-06T11:29:18.732Z,7.09
2023-03-06T11:30:18.640Z,7.19
2023-03-06T11:31:18.636Z,7.26
2023-03-06T11:32:18.647Z,7.41
2023-03-06T11:33:18.610Z,7.60
2023-03-06T11:34:18.568Z,7.55
2023-03-06T11:35:18.571Z,7.29
2023-03-06T11:36:18.558Z,7.16
2023-03-06T11:37:18.530Z,7.16
2023-03-06T11:38:18.521Z,7.09
2023-03-06T11:39:18.507Z,7.16
2023-03-06T11:40:18.534Z,7.09
2023-03-06T11:41:18.612Z,7.19
2023-03-06T11:42:18.487Z,7.23
2023-03-06T11:43:18.458Z,7.27
2023-03-06T11:44:18.453Z,7.42
2023-03-06T11:45:18.442Z,7.54
2023-03-06T11:46:18.488Z,7.67
2023-03-06T11:47:18.416Z,7.67
2023-03-06T11:48:18.420Z,7.71
2023-03-06T11:49:18.392Z,7.84
2023-03-06T11:50:18.389Z,8.10
2023-03-06T11:51:18.440Z,8.25
2023-03-06T11:52:18.365Z,8.28
2023-03-06T11:53:18.352Z,8.43
2023-03-06T11:54:18.345Z,8.49
2023-03-06T11:55:18.332Z,8.58
2023-03-06T11:56:18.344Z,8.65
2023-03-06T11:57:18.305Z,8.83
2023-03-06T11:58:18.295Z,8.85
2023-03-06T11:59:18.284Z,8.76
2023-03-06T12:00:18.280Z,8.76
2023-03-06T12:01:18.299Z,8.68
2023-03-06T12:02:18.269Z,8.34
2023-03-06T12:03:18.238Z,8.29
2023-03-06T12:04:18.234Z,8.14
2023-03-06T12:05:18.341Z,7.84
2023-03-06T12:06:18.210Z,7.57
2023-03-06T12:07:18.224Z,7.27
2023-03-06T12:08:18.190Z,7.27
2023-03-06T12:09:18.175Z,7.30
2023-03-06T12:10:18.166Z,7.30
2023-03-06T12:12:18.155Z,7.47
2023-03-06T12:13:18.150Z,7.39
2023-03-06T12:14:18.116Z,7.26
2023-03-06T12:15:18.104Z,7.15
2023-03-06T12:16:18.139Z,7.15
2023-03-06T12:17:18.082Z,7.09
2023-03-06T12:18:18.101Z,6.97
2023-03-06T12:19:18.054Z,6.93
2023-03-06T12:20:18.045Z,6.76
2023-03-06T12:21:18.048Z,6.55
2023-03-06T12:22:18.026Z,6.55
2023-03-06T12:23:18.009Z,6.64
2023-03-06T12:24:18.036Z,6.75
2023-03-06T12:25:17.996Z,6.79
2023-03-06T12:26:17.980Z,6.90
2023-03-06T12:27:17.962Z,6.96
2023-03-06T12:28:17.963Z,6.97
2023-03-06T12:29:17.970Z,7.04
2023-03-06T12:30:17.945Z,7.05
2023-03-06T12:31:17.960Z,7.01
2023-03-06T12:32:18.053Z,7.00
2023-03-06T12:33:17.899Z,6.94
2023-03-06T12:34:17.897Z,6.90
2023-03-06T12:35:17.912Z,6.87
2023-03-06T12:36:17.864Z,6.81
2023-03-06T12:37:17.864Z,6.71
2023-03-06T12:38:17.857Z,6.71
2023-03-06T12:39:17.828Z,6.72
2023-03-06T12:40:17.840Z,6.71
2023-03-06T12:41:17.804Z,6.72
2023-03-06T12:42:23.230Z,6.82
2023-03-06T12:43:17.852Z,6.89
2023-03-06T12:44:17.797Z,6.93
2023-03-06T12:45:17.764Z,6.97
2023-03-06T12:46:17.795Z,6.99
2023-03-06T12:47:17.736Z,6.99
2023-03-06T12:48:17.729Z,6.93
2023-03-06T12:49:26.253Z,6.83
2023-03-06T12:50:17.713Z,6.89
2023-03-06T12:51:17.744Z,6.91
2023-03-06T12:52:18.736Z,6.86
2023-03-06T12:53:17.672Z,6.87
2023-03-06T12:54:17.669Z,6.89
2023-03-06T12:55:17.647Z,6.90
2023-03-06T12:56:17.667Z,6.78
2023-03-06T12:57:17.642Z,6.64
2023-03-06T12:58:17.616Z,6.65
2023-03-06T12:59:17.603Z,6.64
2023-03-06T13:00:17.600Z,6.68
2023-03-06T13:01:17.634Z,6.69
2023-03-06T13:02:17.613Z,6.73
2023-03-06T13:03:17.559Z,6.82
2023-03-06T13:04:17.578Z,6.86
2023-03-06T13:05:17.550Z,6.93
2023-03-06T13:06:17.530Z,6.94
2023-03-06T13:07:17.551Z,6.96
2023-03-06T13:08:17.516Z,6.96
2023-03-06T13:09:17.492Z,7.01
2023-03-06T13:10:17.493Z,7.04
2023-03-06T13:11:17.485Z,7.01
2023-03-06T13:12:17.459Z,7.05
2023-03-06T13:13:17.476Z,7.12
2023-03-06T13:14:17.438Z,7.21
2023-03-06T13:15:17.440Z,7.34
2023-03-06T13:16:17.417Z,7.44
2023-03-06T13:17:17.432Z,7.42
2023-03-06T13:18:17.418Z,7.36
2023-03-06T13:19:17.381Z,7.36
2023-03-06T13:20:17.365Z,7.52